E.r.seoul — D5OX2 — position and weather

sailwx.info

Track history (hours):
 
Tides and Currents Weather Stations Pressure Air Temp Water Temp Dewpoint Dewpoint Depression Visibility Wind Speed Wind Dir Waves Ship Positions

E.r.seoul

Last reported at 2017-Nov-13 02:00 UTC. Time now 2017-Nov-24 03:49 UTC.
Position S 24°11' W 045°26'.
Warning: this ship's position is 11 days out of date.

Length 277 m; draft 13.8 m.

Type: Ship (hazmat cat A). MMSI: 636018259.

Date/timePositionNaut miles runAvg speedWind from/ knotsBaromVisibWave heightAir tempDewpointWater temp
2017-Nov-13 02:00S 24°11' W 045°26'714.0
2017-Nov-13 01:30S 24°15' W 045°32'713.6
2017-Nov-13 01:00S 24°17' W 045°39'713.8
2017-Nov-13 00:30S 24°19' W 045°47'713.8
2017-Nov-13 00:00S 24°21' W 045°54'713.7
2017-Nov-12 23:30S 24°22' W 046°01'713.1
2017-Nov-12 23:00S 24°23' W 046°08'713.4
2017-Nov-12 22:30S 24°21' W 046°15'510.7
2017-Nov-12 22:00S 24°19' W 046°20'612.3
2017-Nov-12 21:31S 24°13' W 046°22'612.0
2017-Nov-12 21:00S 24°07' W 046°23'510.8
2017-Nov-12 20:30S 24°02' W 046°21'4 7.5
2017-Nov-12 20:00S 23°59' W 046°17'4 0.3
2017-Nov-12 05:43S 23°56' W 046°19'0 0.0
2017-Nov-12 05:19S 23°56' W 046°19'0 0.0
2017-Nov-12 04:55S 23°56' W 046°19'0 0.0
2017-Nov-12 04:25S 23°56' W 046°19'0 0.0
2017-Nov-12 03:55S 23°56' W 046°19'0 0.0
2017-Nov-12 03:19S 23°56' W 046°19'1 0.4
2017-Nov-12 01:50S 23°56' W 046°19'2 6.8
2017-Nov-12 01:30S 23°58' W 046°18'3 6.4
2017-Nov-12 01:00S 24°00' W 046°20'3 6.1
2017-Nov-12 00:30S 24°03' W 046°21'4 7.8
2017-Nov-12 00:00S 24°07' W 046°23'713.5
2017-Nov-11 23:31S 24°13' W 046°26'815.1
2017-Nov-11 23:01S 24°20' W 046°29'815.0
2017-Nov-11 22:30S 24°27' W 046°33'714.7
2017-Nov-11 22:00S 24°33' W 046°37'816.4
2017-Nov-11 21:31S 24°39' W 046°43'917.2
2017-Nov-11 21:00S 24°46' W 046°48'917.2
2017-Nov-11 20:28S 24°54' W 046°54'  
Track history (hours):
 
Tides and Currents Weather Stations Pressure Air Temp Water Temp Dewpoint Dewpoint Depression Visibility Wind Speed Wind Dir Waves Ship Positions

E.r.seoul

Last reported at 2017-Nov-13 02:00 UTC. Time now 2017-Nov-24 03:49 UTC.
Position S 24°11' W 045°26'.
Warning: this ship's position is 11 days out of date.

Length 277 m; draft 13.8 m.

Type: Ship (hazmat cat A). MMSI: 636018259.

Date/timePositionNaut miles runAvg speedWind from/ knotsBaromVisibWave heightAir tempDewpointWater temp
2017-Nov-13 02:00S 24°11' W 045°26'714.0
2017-Nov-13 01:30S 24°15' W 045°32'713.6
2017-Nov-13 01:00S 24°17' W 045°39'713.8
2017-Nov-13 00:30S 24°19' W 045°47'713.8
2017-Nov-13 00:00S 24°21' W 045°54'713.7
2017-Nov-12 23:30S 24°22' W 046°01'713.1
2017-Nov-12 23:00S 24°23' W 046°08'713.4
2017-Nov-12 22:30S 24°21' W 046°15'510.7
2017-Nov-12 22:00S 24°19' W 046°20'612.3
2017-Nov-12 21:31S 24°13' W 046°22'612.0
2017-Nov-12 21:00S 24°07' W 046°23'510.8
2017-Nov-12 20:30S 24°02' W 046°21'4 7.5
2017-Nov-12 20:00S 23°59' W 046°17'4 0.3
2017-Nov-12 05:43S 23°56' W 046°19'0 0.0
2017-Nov-12 05:19S 23°56' W 046°19'0 0.0
2017-Nov-12 04:55S 23°56' W 046°19'0 0.0
2017-Nov-12 04:25S 23°56' W 046°19'0 0.0
2017-Nov-12 03:55S 23°56' W 046°19'0 0.0
2017-Nov-12 03:19S 23°56' W 046°19'1 0.4
2017-Nov-12 01:50S 23°56' W 046°19'2 6.8
2017-Nov-12 01:30S 23°58' W 046°18'3 6.4
2017-Nov-12 01:00S 24°00' W 046°20'3 6.1
2017-Nov-12 00:30S 24°03' W 046°21'4 7.8
2017-Nov-12 00:00S 24°07' W 046°23'713.5
2017-Nov-11 23:31S 24°13' W 046°26'815.1
2017-Nov-11 23:01S 24°20' W 046°29'815.0
2017-Nov-11 22:30S 24°27' W 046°33'714.7
2017-Nov-11 22:00S 24°33' W 046°37'816.4
2017-Nov-11 21:31S 24°39' W 046°43'917.2
2017-Nov-11 21:00S 24°46' W 046°48'917.2
2017-Nov-11 20:28S 24°54' W 046°54'  

Dump ship's entire track history